sensor_id;sensor_type;location;lat;lon;timestamp;P1;durP1;ratioP1;P2;durP2;ratioP2
10341;SDS011;5216;54.602;18.356;2022-08-11T00:00:17;2.10;;;1.85;;
10341;SDS011;5216;54.602;18.356;2022-08-11T00:02:45;3.17;;;2.30;;
10341;SDS011;5216;54.602;18.356;2022-08-11T00:05:14;2.92;;;1.90;;
10341;SDS011;5216;54.602;18.356;2022-08-11T00:07:42;3.83;;;1.95;;
10341;SDS011;5216;54.602;18.356;2022-08-11T00:10:09;2.72;;;2.40;;
10341;SDS011;5216;54.602;18.356;2022-08-11T00:12:37;3.30;;;3.00;;
10341;SDS011;5216;54.602;18.356;2022-08-11T00:15:04;3.55;;;2.67;;
10341;SDS011;5216;54.602;18.356;2022-08-11T00:17:31;3.78;;;2.88;;
10341;SDS011;5216;54.602;18.356;2022-08-11T00:20:03;2.90;;;2.53;;
10341;SDS011;5216;54.602;18.356;2022-08-11T00:22:42;3.03;;;2.72;;
10341;SDS011;5216;54.602;18.356;2022-08-11T00:25:14;3.05;;;2.40;;
10341;SDS011;5216;54.602;18.356;2022-08-11T00:27:41;3.85;;;2.40;;
10341;SDS011;5216;54.602;18.356;2022-08-11T00:30:08;2.65;;;2.20;;
10341;SDS011;5216;54.602;18.356;2022-08-11T00:32:36;1.83;;;1.70;;
10341;SDS011;5216;54.602;18.356;2022-08-11T00:35:03;4.80;;;1.98;;
10341;SDS011;5216;54.602;18.356;2022-08-11T00:37:51;1.98;;;1.80;;
10341;SDS011;5216;54.602;18.356;2022-08-11T00:40:24;2.78;;;2.55;;
10341;SDS011;5216;54.602;18.356;2022-08-11T00:45:28;4.60;;;2.42;;
10341;SDS011;5216;54.602;18.356;2022-08-11T00:53:22;2.83;;;2.55;;
10341;SDS011;5216;54.602;18.356;2022-08-11T00:56:12;2.97;;;2.67;;
10341;SDS011;5216;54.602;18.356;2022-08-11T01:02:05;3.03;;;2.20;;
10341;SDS011;5216;54.602;18.356;2022-08-11T01:07:13;3.22;;;2.53;;
10341;SDS011;5216;54.602;18.356;2022-08-11T01:20:48;2.00;;;1.80;;
10341;SDS011;5216;54.602;18.356;2022-08-11T01:26:10;2.47;;;2.20;;
10341;SDS011;5216;54.602;18.356;2022-08-11T01:42:45;4.75;;;3.15;;
10341;SDS011;5216;54.602;18.356;2022-08-11T01:45:49;6.53;;;3.03;;
10341;SDS011;5216;54.602;18.356;2022-08-11T01:48:27;3.40;;;2.50;;
10341;SDS011;5216;54.602;18.356;2022-08-11T01:51:04;5.32;;;3.30;;
10341;SDS011;5216;54.602;18.356;2022-08-11T01:56:28;5.55;;;2.97;;
10341;SDS011;5216;54.602;18.356;2022-08-11T01:59:13;3.00;;;2.70;;
10341;SDS011;5216;54.602;18.356;2022-08-11T02:06:41;2.97;;;2.70;;
10341;SDS011;5216;54.602;18.356;2022-08-11T02:12:34;3.60;;;2.80;;
10341;SDS011;5216;54.602;18.356;2022-08-11T02:15:16;3.60;;;2.90;;
10341;SDS011;5216;54.602;18.356;2022-08-11T02:17:52;2.92;;;2.63;;
10341;SDS011;5216;54.602;18.356;2022-08-11T02:20:23;2.50;;;2.30;;
10341;SDS011;5216;54.602;18.356;2022-08-11T02:28:45;4.45;;;2.97;;
10341;SDS011;5216;54.602;18.356;2022-08-11T02:31:14;3.50;;;2.90;;
10341;SDS011;5216;54.602;18.356;2022-08-11T02:39:24;3.93;;;3.10;;
10341;SDS011;5216;54.602;18.356;2022-08-11T02:41:57;3.80;;;3.23;;
10341;SDS011;5216;54.602;18.356;2022-08-11T02:47:34;3.83;;;2.88;;
10341;SDS011;5216;54.602;18.356;2022-08-11T02:55:34;4.20;;;2.80;;
10341;SDS011;5216;54.602;18.356;2022-08-11T03:03:43;3.87;;;2.20;;
10341;SDS011;5216;54.602;18.356;2022-08-11T03:06:27;3.60;;;2.57;;
10341;SDS011;5216;54.602;18.356;2022-08-11T03:09:02;4.80;;;2.70;;
10341;SDS011;5216;54.602;18.356;2022-08-11T03:11:31;3.53;;;2.97;;
10341;SDS011;5216;54.602;18.356;2022-08-11T03:14:37;3.97;;;3.07;;
10341;SDS011;5216;54.602;18.356;2022-08-11T03:17:31;3.00;;;2.73;;
10341;SDS011;5216;54.602;18.356;2022-08-11T03:22:47;3.63;;;2.73;;
10341;SDS011;5216;54.602;18.356;2022-08-11T03:25:18;3.03;;;2.63;;
10341;SDS011;5216;54.602;18.356;2022-08-11T03:27:51;3.43;;;3.13;;
10341;SDS011;5216;54.602;18.356;2022-08-11T03:30:20;3.40;;;3.10;;
10341;SDS011;5216;54.602;18.356;2022-08-11T03:36:13;3.53;;;3.17;;
10341;SDS011;5216;54.602;18.356;2022-08-11T03:52:25;5.07;;;2.27;;
10341;SDS011;5216;54.602;18.356;2022-08-11T03:55:13;4.33;;;2.77;;
10341;SDS011;5216;54.602;18.356;2022-08-11T03:57:51;3.60;;;2.80;;
10341;SDS011;5216;54.602;18.356;2022-08-11T04:00:28;3.83;;;2.50;;
10341;SDS011;5216;54.602;18.356;2022-08-11T04:03:07;2.93;;;2.60;;
10341;SDS011;5216;54.602;18.356;2022-08-11T04:05:48;2.73;;;2.40;;
10341;SDS011;5216;54.602;18.356;2022-08-11T04:14:03;3.30;;;2.93;;
10341;SDS011;5216;54.602;18.356;2022-08-11T04:19:46;4.47;;;2.80;;
10341;SDS011;5216;54.602;18.356;2022-08-11T04:22:32;5.83;;;2.90;;
10341;SDS011;5216;54.602;18.356;2022-08-11T04:27:44;3.00;;;2.70;;
10341;SDS011;5216;54.602;18.356;2022-08-11T04:30:17;6.67;;;3.90;;
10341;SDS011;5216;54.602;18.356;2022-08-11T04:35:45;2.97;;;2.63;;
10341;SDS011;5216;54.602;18.356;2022-08-11T04:44:06;3.30;;;3.00;;
10341;SDS011;5216;54.602;18.356;2022-08-11T04:50:25;3.97;;;3.10;;
10341;SDS011;5216;54.602;18.356;2022-08-11T04:53:40;4.10;;;3.43;;
10341;SDS011;5216;54.602;18.356;2022-08-11T04:56:27;5.70;;;2.90;;
10341;SDS011;5216;54.602;18.356;2022-08-11T05:08:07;4.88;;;3.17;;
10341;SDS011;5216;54.602;18.356;2022-08-11T05:13:08;7.17;;;4.13;;
10341;SDS011;5216;54.602;18.356;2022-08-11T05:15:55;8.33;;;4.33;;
10341;SDS011;5216;54.602;18.356;2022-08-11T05:18:49;7.57;;;3.77;;
10341;SDS011;5216;54.602;18.356;2022-08-11T05:21:35;6.30;;;3.80;;
10341;SDS011;5216;54.602;18.356;2022-08-11T05:24:42;6.67;;;4.00;;
10341;SDS011;5216;54.602;18.356;2022-08-11T05:27:29;5.30;;;3.73;;
10341;SDS011;5216;54.602;18.356;2022-08-11T05:30:17;6.97;;;3.87;;
10341;SDS011;5216;54.602;18.356;2022-08-11T05:33:04;5.43;;;3.60;;
10341;SDS011;5216;54.602;18.356;2022-08-11T05:35:54;5.03;;;3.20;;
10341;SDS011;5216;54.602;18.356;2022-08-11T05:38:29;8.63;;;3.40;;
10341;SDS011;5216;54.602;18.356;2022-08-11T05:41:15;5.60;;;3.47;;
10341;SDS011;5216;54.602;18.356;2022-08-11T05:44:03;7.13;;;3.38;;
10341;SDS011;5216;54.602;18.356;2022-08-11T05:46:48;7.85;;;3.55;;
10341;SDS011;5216;54.602;18.356;2022-08-11T05:49:34;6.87;;;3.37;;
10341;SDS011;5216;54.602;18.356;2022-08-11T05:52:20;5.50;;;3.70;;
10341;SDS011;5216;54.602;18.356;2022-08-11T05:55:07;6.50;;;3.87;;
10341;SDS011;5216;54.602;18.356;2022-08-11T05:57:58;6.35;;;4.30;;
10341;SDS011;5216;54.602;18.356;2022-08-11T06:00:25;6.63;;;3.95;;
10341;SDS011;5216;54.602;18.356;2022-08-11T06:02:52;8.50;;;4.23;;
10341;SDS011;5216;54.602;18.356;2022-08-11T06:05:22;6.30;;;4.10;;
10341;SDS011;5216;54.602;18.356;2022-08-11T06:07:52;6.38;;;3.70;;
10341;SDS011;5216;54.602;18.356;2022-08-11T06:10:26;10.70;;;4.20;;
10341;SDS011;5216;54.602;18.356;2022-08-11T06:12:53;9.57;;;3.83;;
10341;SDS011;5216;54.602;18.356;2022-08-11T06:15:21;6.28;;;4.22;;
10341;SDS011;5216;54.602;18.356;2022-08-11T06:17:48;6.75;;;3.10;;
10341;SDS011;5216;54.602;18.356;2022-08-11T06:20:16;11.20;;;3.40;;
10341;SDS011;5216;54.602;18.356;2022-08-11T06:22:44;4.85;;;3.42;;
10341;SDS011;5216;54.602;18.356;2022-08-11T06:25:18;9.15;;;7.13;;
10341;SDS011;5216;54.602;18.356;2022-08-11T06:27:44;12.20;;;9.27;;
10341;SDS011;5216;54.602;18.356;2022-08-11T06:30:11;10.55;;;9.18;;
10341;SDS011;5216;54.602;18.356;2022-08-11T06:32:43;5.75;;;3.90;;
10341;SDS011;5216;54.602;18.356;2022-08-11T06:35:24;9.02;;;4.50;;
10341;SDS011;5216;54.602;18.356;2022-08-11T06:38:08;8.13;;;4.60;;
10341;SDS011;5216;54.602;18.356;2022-08-11T06:43:19;7.70;;;3.22;;
10341;SDS011;5216;54.602;18.356;2022-08-11T06:45:52;4.25;;;3.15;;
10341;SDS011;5216;54.602;18.356;2022-08-11T06:48:20;4.07;;;3.13;;
10341;SDS011;5216;54.602;18.356;2022-08-11T06:50:52;4.05;;;2.70;;
10341;SDS011;5216;54.602;18.356;2022-08-11T06:53:52;6.05;;;3.10;;
10341;SDS011;5216;54.602;18.356;2022-08-11T06:56:31;5.25;;;4.18;;
10341;SDS011;5216;54.602;18.356;2022-08-11T06:59:37;14.60;;;11.60;;
10341;SDS011;5216;54.602;18.356;2022-08-11T07:02:26;5.82;;;3.80;;
10341;SDS011;5216;54.602;18.356;2022-08-11T07:13:55;7.43;;;2.90;;
10341;SDS011;5216;54.602;18.356;2022-08-11T07:16:43;4.70;;;2.95;;
10341;SDS011;5216;54.602;18.356;2022-08-11T07:19:10;4.70;;;2.80;;
10341;SDS011;5216;54.602;18.356;2022-08-11T07:21:56;5.32;;;3.00;;
10341;SDS011;5216;54.602;18.356;2022-08-11T07:24:58;5.05;;;4.50;;
10341;SDS011;5216;54.602;18.356;2022-08-11T07:27:45;8.57;;;4.97;;
10341;SDS011;5216;54.602;18.356;2022-08-11T07:30:31;4.22;;;2.42;;
10341;SDS011;5216;54.602;18.356;2022-08-11T07:33:00;6.15;;;2.95;;
10341;SDS011;5216;54.602;18.356;2022-08-11T07:35:34;7.40;;;3.00;;
10341;SDS011;5216;54.602;18.356;2022-08-11T07:38:03;6.88;;;2.78;;
10341;SDS011;5216;54.602;18.356;2022-08-11T07:40:33;4.03;;;3.47;;
10341;SDS011;5216;54.602;18.356;2022-08-11T07:43:00;4.32;;;2.10;;
10341;SDS011;5216;54.602;18.356;2022-08-11T07:45:28;5.60;;;2.30;;
10341;SDS011;5216;54.602;18.356;2022-08-11T07:48:15;7.32;;;3.50;;
10341;SDS011;5216;54.602;18.356;2022-08-11T07:51:00;9.75;;;2.80;;
10341;SDS011;5216;54.602;18.356;2022-08-11T07:53:46;3.53;;;1.90;;
10341;SDS011;5216;54.602;18.356;2022-08-11T07:56:23;5.30;;;2.10;;
10341;SDS011;5216;54.602;18.356;2022-08-11T07:59:09;4.45;;;1.80;;
10341;SDS011;5216;54.602;18.356;2022-08-11T08:02:15;2.95;;;1.40;;
10341;SDS011;5216;54.602;18.356;2022-08-11T08:05:01;2.20;;;1.77;;
10341;SDS011;5216;54.602;18.356;2022-08-11T08:07:46;2.67;;;2.00;;
10341;SDS011;5216;54.602;18.356;2022-08-11T08:10:31;2.65;;;1.73;;
10341;SDS011;5216;54.602;18.356;2022-08-11T08:13:16;3.65;;;1.80;;
10341;SDS011;5216;54.602;18.356;2022-08-11T08:16:02;2.65;;;1.70;;
10341;SDS011;5216;54.602;18.356;2022-08-11T08:18:47;4.80;;;1.88;;
10341;SDS011;5216;54.602;18.356;2022-08-11T08:21:13;1.50;;;1.40;;
10341;SDS011;5216;54.602;18.356;2022-08-11T08:23:42;2.10;;;1.60;;
10341;SDS011;5216;54.602;18.356;2022-08-11T08:26:11;2.35;;;1.80;;
10341;SDS011;5216;54.602;18.356;2022-08-11T08:29:16;4.10;;;2.00;;
10341;SDS011;5216;54.602;18.356;2022-08-11T08:32:02;3.05;;;1.63;;
10341;SDS011;5216;54.602;18.356;2022-08-11T08:34:28;4.05;;;1.90;;
10341;SDS011;5216;54.602;18.356;2022-08-11T08:36:58;2.83;;;1.90;;
10341;SDS011;5216;54.602;18.356;2022-08-11T08:39:25;2.58;;;1.77;;
10341;SDS011;5216;54.602;18.356;2022-08-11T08:41:52;2.35;;;1.63;;
10341;SDS011;5216;54.602;18.356;2022-08-11T08:44:20;2.25;;;1.42;;
10341;SDS011;5216;54.602;18.356;2022-08-11T08:47:06;3.45;;;1.50;;
10341;SDS011;5216;54.602;18.356;2022-08-11T08:49:35;2.72;;;1.40;;
10341;SDS011;5216;54.602;18.356;2022-08-11T08:52:07;2.85;;;1.55;;
10341;SDS011;5216;54.602;18.356;2022-08-11T08:54:55;2.33;;;1.50;;
10341;SDS011;5216;54.602;18.356;2022-08-11T08:57:22;3.17;;;1.20;;
10341;SDS011;5216;54.602;18.356;2022-08-11T08:59:49;1.67;;;1.30;;
10341;SDS011;5216;54.602;18.356;2022-08-11T09:02:17;2.55;;;1.30;;
10341;SDS011;5216;54.602;18.356;2022-08-11T09:04:59;1.23;;;1.10;;
10341;SDS011;5216;54.602;18.356;2022-08-11T09:07:26;1.10;;;0.98;;
10341;SDS011;5216;54.602;18.356;2022-08-11T09:10:04;1.23;;;1.13;;
10341;SDS011;5216;54.602;18.356;2022-08-11T09:12:31;2.17;;;1.10;;
10341;SDS011;5216;54.602;18.356;2022-08-11T09:15:04;1.85;;;1.30;;
10341;SDS011;5216;54.602;18.356;2022-08-11T09:17:46;1.23;;;1.00;;
10341;SDS011;5216;54.602;18.356;2022-08-11T09:20:14;1.50;;;1.10;;
10341;SDS011;5216;54.602;18.356;2022-08-11T09:22:43;1.83;;;1.00;;
10341;SDS011;5216;54.602;18.356;2022-08-11T09:25:55;1.45;;;0.93;;
10341;SDS011;5216;54.602;18.356;2022-08-11T09:28:43;2.83;;;1.50;;
10341;SDS011;5216;54.602;18.356;2022-08-11T09:31:10;1.13;;;0.90;;
10341;SDS011;5216;54.602;18.356;2022-08-11T09:33:39;1.50;;;0.90;;
10341;SDS011;5216;54.602;18.356;2022-08-11T09:36:08;1.83;;;1.30;;
10341;SDS011;5216;54.602;18.356;2022-08-11T09:38:55;1.52;;;1.20;;
10341;SDS011;5216;54.602;18.356;2022-08-11T09:41:40;1.55;;;1.27;;
10341;SDS011;5216;54.602;18.356;2022-08-11T09:44:28;1.30;;;1.20;;
10341;SDS011;5216;54.602;18.356;2022-08-11T09:47:24;1.40;;;1.30;;
10341;SDS011;5216;54.602;18.356;2022-08-11T09:49:52;3.60;;;1.45;;
10341;SDS011;5216;54.602;18.356;2022-08-11T09:52:20;1.92;;;1.20;;
10341;SDS011;5216;54.602;18.356;2022-08-11T09:54:48;2.63;;;1.38;;
10341;SDS011;5216;54.602;18.356;2022-08-11T09:57:19;1.90;;;1.30;;
10341;SDS011;5216;54.602;18.356;2022-08-11T10:00:15;1.38;;;1.23;;
10341;SDS011;5216;54.602;18.356;2022-08-11T10:02:42;1.63;;;1.30;;
10341;SDS011;5216;54.602;18.356;2022-08-11T10:05:10;2.67;;;1.23;;
10341;SDS011;5216;54.602;18.356;2022-08-11T10:07:55;1.38;;;1.20;;
10341;SDS011;5216;54.602;18.356;2022-08-11T10:10:22;1.25;;;1.15;;
10341;SDS011;5216;54.602;18.356;2022-08-11T10:12:51;1.42;;;1.20;;
10341;SDS011;5216;54.602;18.356;2022-08-11T10:15:21;3.75;;;1.50;;
10341;SDS011;5216;54.602;18.356;2022-08-11T10:18:03;1.10;;;1.00;;
10341;SDS011;5216;54.602;18.356;2022-08-11T10:20:49;1.75;;;1.08;;
10341;SDS011;5216;54.602;18.356;2022-08-11T10:23:16;2.35;;;1.30;;
10341;SDS011;5216;54.602;18.356;2022-08-11T10:26:22;1.55;;;1.25;;
10341;SDS011;5216;54.602;18.356;2022-08-11T10:29:08;3.60;;;1.50;;
10341;SDS011;5216;54.602;18.356;2022-08-11T10:32:02;4.40;;;1.33;;
10341;SDS011;5216;54.602;18.356;2022-08-11T10:34:56;1.48;;;1.13;;
10341;SDS011;5216;54.602;18.356;2022-08-11T10:37:24;1.30;;;1.20;;
10341;SDS011;5216;54.602;18.356;2022-08-11T10:40:14;1.20;;;1.10;;
10341;SDS011;5216;54.602;18.356;2022-08-11T10:42:41;1.30;;;1.20;;
10341;SDS011;5216;54.602;18.356;2022-08-11T10:45:30;1.58;;;1.45;;
10341;SDS011;5216;54.602;18.356;2022-08-11T10:48:15;1.25;;;1.15;;
10341;SDS011;5216;54.602;18.356;2022-08-11T10:50:46;1.80;;;1.38;;
10341;SDS011;5216;54.602;18.356;2022-08-11T10:53:32;1.60;;;1.20;;
10341;SDS011;5216;54.602;18.356;2022-08-11T10:56:17;3.67;;;1.25;;
10341;SDS011;5216;54.602;18.356;2022-08-11T10:59:04;2.45;;;1.58;;
10341;SDS011;5216;54.602;18.356;2022-08-11T11:01:35;3.08;;;1.55;;
10341;SDS011;5216;54.602;18.356;2022-08-11T11:09:24;2.53;;;1.80;;
10341;SDS011;5216;54.602;18.356;2022-08-11T11:11:55;5.05;;;1.20;;
10341;SDS011;5216;54.602;18.356;2022-08-11T11:14:42;2.17;;;1.50;;
10341;SDS011;5216;54.602;18.356;2022-08-11T11:17:36;1.75;;;1.60;;
10341;SDS011;5216;54.602;18.356;2022-08-11T11:20:22;1.75;;;1.35;;
10341;SDS011;5216;54.602;18.356;2022-08-11T11:23:06;1.05;;;1.02;;
10341;SDS011;5216;54.602;18.356;2022-08-11T11:28:37;1.77;;;1.42;;
10341;SDS011;5216;54.602;18.356;2022-08-11T11:31:15;1.58;;;1.40;;
10341;SDS011;5216;54.602;18.356;2022-08-11T11:36:39;2.03;;;1.40;;
10341;SDS011;5216;54.602;18.356;2022-08-11T11:39:08;2.28;;;1.30;;
10341;SDS011;5216;54.602;18.356;2022-08-11T11:41:35;1.38;;;1.27;;
10341;SDS011;5216;54.602;18.356;2022-08-11T11:44:05;6.03;;;1.40;;
10341;SDS011;5216;54.602;18.356;2022-08-11T11:46:32;1.73;;;1.40;;
10341;SDS011;5216;54.602;18.356;2022-08-11T11:49:04;1.20;;;1.10;;
10341;SDS011;5216;54.602;18.356;2022-08-11T11:51:42;1.75;;;1.20;;
10341;SDS011;5216;54.602;18.356;2022-08-11T11:54:15;2.33;;;1.80;;
10341;SDS011;5216;54.602;18.356;2022-08-11T11:56:42;1.73;;;1.60;;
10341;SDS011;5216;54.602;18.356;2022-08-11T11:59:10;2.63;;;1.27;;
10341;SDS011;5216;54.602;18.356;2022-08-11T12:01:55;2.72;;;1.55;;
10341;SDS011;5216;54.602;18.356;2022-08-11T12:04:22;2.63;;;1.48;;
10341;SDS011;5216;54.602;18.356;2022-08-11T12:06:49;1.60;;;1.40;;
10341;SDS011;5216;54.602;18.356;2022-08-11T12:09:17;3.33;;;1.33;;
10341;SDS011;5216;54.602;18.356;2022-08-11T12:11:49;2.17;;;1.58;;
10341;SDS011;5216;54.602;18.356;2022-08-11T12:14:34;2.72;;;1.50;;
10341;SDS011;5216;54.602;18.356;2022-08-11T12:17:01;1.35;;;1.20;;
10341;SDS011;5216;54.602;18.356;2022-08-11T12:19:28;1.90;;;1.25;;
10341;SDS011;5216;54.602;18.356;2022-08-11T12:22:01;1.48;;;1.27;;
10341;SDS011;5216;54.602;18.356;2022-08-11T12:24:46;2.80;;;1.20;;
10341;SDS011;5216;54.602;18.356;2022-08-11T12:27:31;1.58;;;1.17;;
10341;SDS011;5216;54.602;18.356;2022-08-11T12:29:58;1.20;;;1.10;;
10341;SDS011;5216;54.602;18.356;2022-08-11T12:32:26;2.47;;;1.15;;
10341;SDS011;5216;54.602;18.356;2022-08-11T12:34:57;2.97;;;1.40;;
10341;SDS011;5216;54.602;18.356;2022-08-11T12:37:34;5.05;;;1.50;;
10341;SDS011;5216;54.602;18.356;2022-08-11T12:40:03;2.30;;;1.63;;
10341;SDS011;5216;54.602;18.356;2022-08-11T12:43:19;2.55;;;1.10;;
10341;SDS011;5216;54.602;18.356;2022-08-11T12:46:08;2.03;;;1.38;;
10341;SDS011;5216;54.602;18.356;2022-08-11T12:48:36;1.60;;;1.35;;
10341;SDS011;5216;54.602;18.356;2022-08-11T12:51:30;2.80;;;1.27;;
10341;SDS011;5216;54.602;18.356;2022-08-11T12:57:25;2.92;;;2.10;;
10341;SDS011;5216;54.602;18.356;2022-08-11T13:00:10;1.85;;;1.60;;
10341;SDS011;5216;54.602;18.356;2022-08-11T13:02:56;2.88;;;1.25;;
10341;SDS011;5216;54.602;18.356;2022-08-11T13:05:41;3.63;;;1.40;;
10341;SDS011;5216;54.602;18.356;2022-08-11T13:08:10;1.42;;;1.30;;
10341;SDS011;5216;54.602;18.356;2022-08-11T13:10:37;1.77;;;1.23;;
10341;SDS011;5216;54.602;18.356;2022-08-11T13:13:22;3.30;;;1.92;;
10341;SDS011;5216;54.602;18.356;2022-08-11T13:16:09;1.83;;;1.50;;
10341;SDS011;5216;54.602;18.356;2022-08-11T13:18:37;3.33;;;1.42;;
10341;SDS011;5216;54.602;18.356;2022-08-11T13:21:04;2.60;;;1.30;;
10341;SDS011;5216;54.602;18.356;2022-08-11T13:23:31;1.85;;;1.25;;
10341;SDS011;5216;54.602;18.356;2022-08-11T13:26:00;2.67;;;1.30;;
10341;SDS011;5216;54.602;18.356;2022-08-11T13:28:27;1.40;;;1.27;;
10341;SDS011;5216;54.602;18.356;2022-08-11T13:30:54;2.95;;;1.30;;
10341;SDS011;5216;54.602;18.356;2022-08-11T13:33:46;1.65;;;1.30;;
10341;SDS011;5216;54.602;18.356;2022-08-11T13:36:16;1.38;;;1.20;;
10341;SDS011;5216;54.602;18.356;2022-08-11T13:38:44;2.45;;;1.50;;
10341;SDS011;5216;54.602;18.356;2022-08-11T13:41:16;1.83;;;1.27;;
10341;SDS011;5216;54.602;18.356;2022-08-11T13:44:01;1.83;;;1.27;;
10341;SDS011;5216;54.602;18.356;2022-08-11T13:46:31;2.30;;;1.40;;
10341;SDS011;5216;54.602;18.356;2022-08-11T13:49:00;4.05;;;1.70;;
10341;SDS011;5216;54.602;18.356;2022-08-11T13:51:27;5.07;;;4.07;;
10341;SDS011;5216;54.602;18.356;2022-08-11T13:54:07;2.55;;;1.20;;
10341;SDS011;5216;54.602;18.356;2022-08-11T13:56:35;3.70;;;1.30;;
10341;SDS011;5216;54.602;18.356;2022-08-11T13:59:06;1.73;;;1.40;;
10341;SDS011;5216;54.602;18.356;2022-08-11T14:01:36;1.92;;;1.40;;
10341;SDS011;5216;54.602;18.356;2022-08-11T14:04:26;1.20;;;1.08;;
10341;SDS011;5216;54.602;18.356;2022-08-11T14:06:56;1.13;;;1.02;;
10341;SDS011;5216;54.602;18.356;2022-08-11T14:09:26;1.60;;;1.30;;
10341;SDS011;5216;54.602;18.356;2022-08-11T14:11:55;1.20;;;1.10;;
10341;SDS011;5216;54.602;18.356;2022-08-11T14:14:50;1.42;;;0.93;;
10341;SDS011;5216;54.602;18.356;2022-08-11T14:17:17;2.10;;;1.10;;
10341;SDS011;5216;54.602;18.356;2022-08-11T14:20:05;2.22;;;1.00;;
10341;SDS011;5216;54.602;18.356;2022-08-11T14:22:53;1.30;;;1.20;;
10341;SDS011;5216;54.602;18.356;2022-08-11T14:25:22;1.30;;;1.20;;
10341;SDS011;5216;54.602;18.356;2022-08-11T14:28:30;2.03;;;1.20;;
10341;SDS011;5216;54.602;18.356;2022-08-11T14:31:09;2.17;;;1.10;;
10341;SDS011;5216;54.602;18.356;2022-08-11T14:33:36;2.42;;;1.27;;
10341;SDS011;5216;54.602;18.356;2022-08-11T14:36:23;1.42;;;1.02;;
10341;SDS011;5216;54.602;18.356;2022-08-11T14:38:50;1.20;;;1.00;;
10341;SDS011;5216;54.602;18.356;2022-08-11T14:41:19;2.08;;;1.10;;
10341;SDS011;5216;54.602;18.356;2022-08-11T14:44:27;3.38;;;1.10;;
10341;SDS011;5216;54.602;18.356;2022-08-11T14:47:12;1.70;;;1.20;;
10341;SDS011;5216;54.602;18.356;2022-08-11T14:49:50;1.58;;;1.33;;
10341;SDS011;5216;54.602;18.356;2022-08-11T14:52:36;3.33;;;1.10;;
10341;SDS011;5216;54.602;18.356;2022-08-11T14:55:03;1.80;;;1.25;;
10341;SDS011;5216;54.602;18.356;2022-08-11T14:57:50;1.60;;;1.10;;
10341;SDS011;5216;54.602;18.356;2022-08-11T15:00:25;1.48;;;1.00;;
10341;SDS011;5216;54.602;18.356;2022-08-11T15:02:52;5.65;;;3.25;;
10341;SDS011;5216;54.602;18.356;2022-08-11T15:05:40;2.38;;;1.92;;
10341;SDS011;5216;54.602;18.356;2022-08-11T15:08:23;2.13;;;1.30;;
10341;SDS011;5216;54.602;18.356;2022-08-11T15:11:11;3.53;;;1.20;;
10341;SDS011;5216;54.602;18.356;2022-08-11T15:13:57;1.98;;;1.10;;
10341;SDS011;5216;54.602;18.356;2022-08-11T15:16:25;1.58;;;1.30;;
10341;SDS011;5216;54.602;18.356;2022-08-11T15:19:11;3.15;;;1.50;;
10341;SDS011;5216;54.602;18.356;2022-08-11T15:21:38;2.45;;;1.35;;
10341;SDS011;5216;54.602;18.356;2022-08-11T15:24:23;1.75;;;1.30;;
10341;SDS011;5216;54.602;18.356;2022-08-11T15:26:53;3.65;;;1.27;;
10341;SDS011;5216;54.602;18.356;2022-08-11T15:29:38;1.77;;;1.30;;
10341;SDS011;5216;54.602;18.356;2022-08-11T15:32:25;3.03;;;1.40;;
10341;SDS011;5216;54.602;18.356;2022-08-11T15:35:11;1.80;;;1.40;;
10341;SDS011;5216;54.602;18.356;2022-08-11T15:38:04;1.65;;;1.20;;
10341;SDS011;5216;54.602;18.356;2022-08-11T15:40:35;3.13;;;1.20;;
10341;SDS011;5216;54.602;18.356;2022-08-11T15:43:24;1.55;;;1.25;;
10341;SDS011;5216;54.602;18.356;2022-08-11T15:46:11;4.20;;;1.40;;
10341;SDS011;5216;54.602;18.356;2022-08-11T15:48:43;3.28;;;1.40;;
10341;SDS011;5216;54.602;18.356;2022-08-11T15:51:13;1.52;;;1.15;;
10341;SDS011;5216;54.602;18.356;2022-08-11T15:53:46;2.33;;;2.13;;
10341;SDS011;5216;54.602;18.356;2022-08-11T15:56:23;4.97;;;3.10;;
10341;SDS011;5216;54.602;18.356;2022-08-11T15:58:53;13.27;;;11.82;;
10341;SDS011;5216;54.602;18.356;2022-08-11T16:02:01;9.23;;;6.40;;
10341;SDS011;5216;54.602;18.356;2022-08-11T16:04:58;6.40;;;5.78;;
10341;SDS011;5216;54.602;18.356;2022-08-11T16:07:29;9.35;;;8.45;;
10341;SDS011;5216;54.602;18.356;2022-08-11T16:10:04;6.53;;;5.13;;
10341;SDS011;5216;54.602;18.356;2022-08-11T16:12:42;2.72;;;1.90;;
10341;SDS011;5216;54.602;18.356;2022-08-11T16:15:33;3.63;;;1.80;;
10341;SDS011;5216;54.602;18.356;2022-08-11T16:18:19;2.00;;;1.50;;
10341;SDS011;5216;54.602;18.356;2022-08-11T16:20:46;3.50;;;1.50;;
10341;SDS011;5216;54.602;18.356;2022-08-11T16:23:15;2.58;;;1.35;;
10341;SDS011;5216;54.602;18.356;2022-08-11T16:25:43;1.80;;;1.20;;
10341;SDS011;5216;54.602;18.356;2022-08-11T16:28:30;2.30;;;1.42;;
10341;SDS011;5216;54.602;18.356;2022-08-11T16:30:56;3.25;;;1.30;;
10341;SDS011;5216;54.602;18.356;2022-08-11T16:33:23;3.08;;;1.23;;
10341;SDS011;5216;54.602;18.356;2022-08-11T16:36:10;1.30;;;1.17;;
10341;SDS011;5216;54.602;18.356;2022-08-11T16:38:57;1.60;;;1.33;;
10341;SDS011;5216;54.602;18.356;2022-08-11T16:41:25;2.15;;;1.30;;
10341;SDS011;5216;54.602;18.356;2022-08-11T16:44:12;2.08;;;1.20;;
10341;SDS011;5216;54.602;18.356;2022-08-11T16:47:03;1.23;;;1.10;;
10341;SDS011;5216;54.602;18.356;2022-08-11T16:49:32;1.75;;;1.55;;
10341;SDS011;5216;54.602;18.356;2022-08-11T16:52:00;1.77;;;1.67;;
10341;SDS011;5216;54.602;18.356;2022-08-11T16:54:30;3.90;;;1.50;;
10341;SDS011;5216;54.602;18.356;2022-08-11T16:56:58;2.40;;;1.80;;
10341;SDS011;5216;54.602;18.356;2022-08-11T16:59:45;1.38;;;1.23;;
10341;SDS011;5216;54.602;18.356;2022-08-11T17:02:15;2.60;;;1.60;;
10341;SDS011;5216;54.602;18.356;2022-08-11T17:05:19;1.95;;;1.40;;
10341;SDS011;5216;54.602;18.356;2022-08-11T17:08:20;1.20;;;1.10;;
10341;SDS011;5216;54.602;18.356;2022-08-11T17:11:15;1.70;;;1.20;;
10341;SDS011;5216;54.602;18.356;2022-08-11T17:14:12;3.38;;;1.65;;
10341;SDS011;5216;54.602;18.356;2022-08-11T17:17:01;1.30;;;1.20;;
10341;SDS011;5216;54.602;18.356;2022-08-11T17:19:30;2.55;;;1.45;;
10341;SDS011;5216;54.602;18.356;2022-08-11T17:22:17;3.58;;;1.38;;
10341;SDS011;5216;54.602;18.356;2022-08-11T17:25:03;2.17;;;1.40;;
10341;SDS011;5216;54.602;18.356;2022-08-11T17:27:31;5.15;;;1.70;;
10341;SDS011;5216;54.602;18.356;2022-08-11T17:29:58;3.25;;;1.30;;
10341;SDS011;5216;54.602;18.356;2022-08-11T17:32:32;1.88;;;1.20;;
10341;SDS011;5216;54.602;18.356;2022-08-11T17:35:31;6.32;;;1.50;;
10341;SDS011;5216;54.602;18.356;2022-08-11T17:40:33;4.75;;;1.55;;
10341;SDS011;5216;54.602;18.356;2022-08-11T17:43:02;5.25;;;1.75;;
10341;SDS011;5216;54.602;18.356;2022-08-11T17:45:47;4.35;;;1.60;;
10341;SDS011;5216;54.602;18.356;2022-08-11T17:48:35;8.27;;;1.85;;
10341;SDS011;5216;54.602;18.356;2022-08-11T17:51:13;8.13;;;1.73;;
10341;SDS011;5216;54.602;18.356;2022-08-11T17:54:01;6.22;;;2.00;;
10341;SDS011;5216;54.602;18.356;2022-08-11T17:56:51;4.15;;;1.65;;
10341;SDS011;5216;54.602;18.356;2022-08-11T17:59:46;5.28;;;1.60;;
10341;SDS011;5216;54.602;18.356;2022-08-11T18:02:21;7.07;;;2.28;;
10341;SDS011;5216;54.602;18.356;2022-08-11T18:05:08;5.72;;;1.60;;
10341;SDS011;5216;54.602;18.356;2022-08-11T18:07:39;4.82;;;1.88;;
10341;SDS011;5216;54.602;18.356;2022-08-11T18:10:25;2.40;;;1.60;;
10341;SDS011;5216;54.602;18.356;2022-08-11T18:13:11;5.07;;;1.58;;
10341;SDS011;5216;54.602;18.356;2022-08-11T18:15:57;2.85;;;1.73;;
10341;SDS011;5216;54.602;18.356;2022-08-11T18:18:42;4.82;;;1.73;;
10341;SDS011;5216;54.602;18.356;2022-08-11T18:21:27;4.50;;;1.40;;
10341;SDS011;5216;54.602;18.356;2022-08-11T18:24:36;21.80;;;19.55;;
10341;SDS011;5216;54.602;18.356;2022-08-11T18:27:21;26.35;;;18.20;;
10341;SDS011;5216;54.602;18.356;2022-08-11T18:30:07;5.32;;;3.40;;
10341;SDS011;5216;54.602;18.356;2022-08-11T18:32:53;4.63;;;3.78;;
10341;SDS011;5216;54.602;18.356;2022-08-11T18:35:58;8.15;;;4.60;;